Time;durP1;ratioP1;P1;durP2;ratioP2;P2;SDS_P1;SDS_P2;PMS_P1;PMS_P2;Temp;Humidity;BMP_temperature;BMP_pressure;BME280_temperature;BME280_humidity;BME280_pressure;Samples;Min_cycle;Max_cycle;Signal;HPM_P1;HPM_P2
2023/05/06 00:00:01;;;;;;;;;;;;;;;;;;5029554;28;19919;-76
2023/05/06 00:02:36;;;;;;;;;;;;;;;;;;5035338;28;19913;-75
2023/05/06 00:05:02;;;;;;;;;;;;;;;;;;5047436;28;20409;-76
2023/05/06 00:07:27;;;;;;;;;;;;;;;;;;5035577;28;19909;-76
2023/05/06 00:09:53;;;;;;;;;;;;;;;;;;5036809;28;19919;-75
2023/05/06 00:12:18;;;;;;;;;;;;;;;;;;5045506;28;20314;-76
2023/05/06 00:14:43;;;;;;;;;;;;;;;;;;5036548;28;20035;-76
2023/05/06 00:17:09;;;;;;;;;;;;;;;;;;5035203;28;19913;-75
2023/05/06 00:19:34;;;;;;;;;;;;;;;;;;5033624;28;20289;-79
2023/05/06 00:22:00;;;;;;;;;;;;;;;;;;5034733;28;19909;-75
2023/05/06 00:24:25;;;;;;;;;;;;;;;;;;5047113;28;19955;-75
2023/05/06 00:26:50;;;;;;;;;;;;;;;;;;5033694;28;19920;-77
2023/05/06 00:29:16;;;;;;;;;;;;;;;;;;5034805;28;20268;-78
2023/05/06 00:31:41;;;;;;;;;;;;;;;;;;5033366;28;19909;-77
2023/05/06 00:34:06;;;;;;;;;;;;;;;;;;5033171;28;19928;-78
2023/05/06 00:36:32;;;;;;;;;;;;;;;;;;5042878;28;19983;-77
2023/05/06 00:38:58;;;;;;;;;;;;;;;;;;5046600;28;20333;-77
2023/05/06 00:41:23;;;;;;;;;;;;;;;;;;5042323;28;19908;-77
2023/05/06 00:43:49;;;;;;;;;;;;;;;;;;5047812;28;19912;-78
2023/05/06 00:46:14;;;;;;;;;;;;;;;;;;5033481;28;19915;-78
2023/05/06 00:48:39;;;;;;;;;;;;;;;;;;5047209;28;19913;-77
2023/05/06 00:51:05;;;;;;;;;;;;;;;;;;5071248;28;20338;-77
2023/05/06 00:53:31;;;;;;;;;;;;;;;;;;5032309;28;19970;-77
2023/05/06 00:55:57;;;;;;;;;;;;;;;;;;5033046;28;19909;-77
2023/05/06 00:58:22;;;;;;;;;;;;;;;;;;5031932;28;19921;-77
2023/05/06 01:00:47;;;;;;;;;;;;;;;;;;5033308;28;19909;-77
2023/05/06 01:03:12;;;;;;;;;;;;;;;;;;5016020;28;20411;-77
2023/05/06 01:05:38;;;;;;;;;;;;;;;;;;5033516;28;20367;-78
2023/05/06 01:08:03;;;;;;;;;;;;;;;;;;5016316;28;20146;-77
2023/05/06 01:10:29;;;;;;;;;;;;;;;;;;5034761;28;19931;-77
2023/05/06 01:12:55;;;;;;;;;;;;;;;;;;5033949;28;19995;-77
2023/05/06 01:15:20;;;;;;;;;;;;;;;;;;5034176;28;19948;-77
2023/05/06 01:17:48;;;;;;;;;;;;;;;;;;5033730;28;19917;-78
2023/05/06 01:20:14;;;;;;;;;;;;;;;;;;5033943;28;19916;-78
2023/05/06 01:22:39;;;;;;;;;;;;;;;;;;5034429;28;20290;-77
2023/05/06 01:25:05;;;;;;;;;;;;;;;;;;5035548;28;19909;-77
2023/05/06 01:27:30;;;;;;;;;;;;;;;;;;5032235;28;19962;-77
2023/05/06 01:29:55;;;;;;;;;;;;;;;;;;5032468;28;19909;-77
2023/05/06 01:32:21;;;;;;;;;;;;;;;;;;5032016;28;19917;-77
2023/05/06 01:34:46;;;;;;;;;;;;;;;;;;5032722;28;19924;-77
2023/05/06 01:37:11;;;;;;;;;;;;;;;;;;5047975;28;19981;-77
2023/05/06 01:39:37;;;;;;;;;;;;;;;;;;5032833;28;20287;-78
2023/05/06 01:42:02;;;;;;;;;;;;;;;;;;5031399;28;20346;-77
2023/05/06 01:44:29;;;;;;;;;;;;;;;;;;5033276;28;19912;-77
2023/05/06 01:46:54;;;;;;;;;;;;;;;;;;5032875;28;19959;-77
2023/05/06 01:49:19;;;;;;;;;;;;;;;;;;5033671;28;19948;-77
2023/05/06 01:51:47;;;;;;;;;;;;;;;;;;5033291;28;20272;-78
2023/05/06 01:54:13;;;;;;;;;;;;;;;;;;5032945;28;19970;-78
2023/05/06 01:56:38;;;;;;;;;;;;;;;;;;5035286;28;19920;-78
2023/05/06 01:59:04;;;;;;;;;;;;;;;;;;5019520;28;19913;-77
2023/05/06 02:01:29;;;;;;;;;;;;;;;;;;5033353;28;19959;-77
2023/05/06 02:03:54;;;;;;;;;;;;;;;;;;5037271;28;19909;-77
2023/05/06 02:06:20;;;;;;;;;;;;;;;;;;5038079;28;19912;-77
2023/05/06 02:08:45;;;;;;;;;;;;;;;;;;5058828;28;19909;-77
2023/05/06 02:11:15;;;;;;;;;;;;;;;;;;5035521;28;19913;-78
2023/05/06 02:13:40;;;;;;;;;;;;;;;;;;5037083;28;19916;-78
2023/05/06 02:16:07;;;;;;;;;;;;;;;;;;5035761;28;19920;-77
2023/05/06 02:18:33;;;;;;;;;;;;;;;;;;5020386;28;20364;-77
2023/05/06 02:20:58;;;;;;;;;;;;;;;;;;5037205;28;20434;-77
2023/05/06 02:23:23;;;;;;;;;;;;;;;;;;5035779;28;19916;-77
2023/05/06 02:25:50;;;;;;;;;;;;;;;;;;5032600;28;20016;-78
2023/05/06 02:28:15;;;;;;;;;;;;;;;;;;5029771;28;19908;-77
2023/05/06 02:30:41;;;;;;;;;;;;;;;;;;5049703;28;19925;-77
2023/05/06 02:33:06;;;;;;;;;;;;;;;;;;5061125;28;19948;-78
2023/05/06 02:35:31;;;;;;;;;;;;;;;;;;5036882;28;19958;-77
2023/05/06 02:37:57;;;;;;;;;;;;;;;;;;5035730;28;20390;-77
2023/05/06 02:40:22;;;;;;;;;;;;;;;;;;5037017;28;19913;-78
2023/05/06 02:42:47;;;;;;;;;;;;;;;;;;5035475;28;19948;-77
2023/05/06 02:45:13;;;;;;;;;;;;;;;;;;5034882;28;19912;-77
2023/05/06 02:47:38;;;;;;;;;;;;;;;;;;5036521;28;19909;-77
2023/05/06 02:50:03;;;;;;;;;;;;;;;;;;5041307;28;19916;-77
2023/05/06 02:52:31;;;;;;;;;;;;;;;;;;5038730;28;19934;-77
2023/05/06 02:54:56;;;;;;;;;;;;;;;;;;5041563;28;19917;-77
2023/05/06 02:57:21;;;;;;;;;;;;;;;;;;5035456;28;19916;-77
2023/05/06 02:59:47;;;;;;;;;;;;;;;;;;5043739;28;20379;-77
2023/05/06 03:02:12;;;;;;;;;;;;;;;;;;5039855;28;19997;-77
2023/05/06 03:04:37;;;;;;;;;;;;;;;;;;5040187;28;19913;-77
2023/05/06 03:07:03;;;;;;;;;;;;;;;;;;5035101;28;19909;-78
2023/05/06 03:09:28;;;;;;;;;;;;;;;;;;5035957;28;19913;-77
2023/05/06 03:11:53;;;;;;;;;;;;;;;;;;5050973;28;20323;-77
2023/05/06 03:14:19;;;;;;;;;;;;;;;;;;5033048;28;19920;-77
2023/05/06 03:16:44;;;;;;;;;;;;;;;;;;5033710;28;19916;-76
2023/05/06 03:19:10;;;;;;;;;;;;;;;;;;5034559;28;19924;-77
2023/05/06 03:21:35;;;;;;;;;;;;;;;;;;5061020;28;19963;-75
2023/05/06 03:24:01;;;;;;;;;;;;;;;;;;5033510;28;19917;-76
2023/05/06 03:26:28;;;;;;;;;;;;;;;;;;5030075;28;19910;-76
2023/05/06 03:28:53;;;;;;;;;;;;;;;;;;5066789;28;20376;-76
2023/05/06 03:31:20;;;;;;;;;;;;;;;;;;5017893;28;19916;-76
2023/05/06 03:33:45;;;;;;;;;;;;;;;;;;5019307;28;19917;-76
2023/05/06 03:36:14;;;;;;;;;;;;;;;;;;5030846;28;19921;-76
2023/05/06 03:38:42;;;;;;;;;;;;;;;;;;5035293;28;19932;-76
2023/05/06 03:41:08;;;;;;;;;;;;;;;;;;5036181;28;20414;-77
2023/05/06 03:43:33;;;;;;;;;;;;;;;;;;5038821;28;19940;-75
2023/05/06 03:46:01;;;;;;;;;;;;;;;;;;5046017;28;19909;-75
2023/05/06 03:48:26;;;;;;;;;;;;;;;;;;5039380;28;20282;-76
2023/05/06 03:50:53;;;;;;;;;;;;;;;;;;5037578;28;19915;-75
2023/05/06 03:53:18;;;;;;;;;;;;;;;;;;5042086;28;20019;-77
2023/05/06 03:55:45;;;;;;;;;;;;;;;;;;5021161;28;19909;-76
2023/05/06 03:58:11;;;;;;;;;;;;;;;;;;5067888;28;19920;-76
2023/05/06 04:00:38;;;;;;;;;;;;;;;;;;5037850;28;19931;-77
2023/05/06 04:03:03;;;;;;;;;;;;;;;;;;5041759;28;20015;-76
2023/05/06 04:05:35;;;;;;;;;;;;;;;;;;5036603;28;20658;-77
2023/05/06 04:08:00;;;;;;;;;;;;;;;;;;5037698;28;20038;-77
2023/05/06 04:10:25;;;;;;;;;;;;;;;;;;5038744;28;19909;-77
2023/05/06 04:12:54;;;;;;;;;;;;;;;;;;5038687;28;19913;-77
2023/05/06 04:15:24;;;;;;;;;;;;;;;;;;5039339;28;20399;-76
2023/05/06 04:17:49;;;;;;;;;;;;;;;;;;5045170;28;19917;-76
2023/05/06 04:20:15;;;;;;;;;;;;;;;;;;5038845;28;19909;-77
2023/05/06 04:22:40;;;;;;;;;;;;;;;;;;5043990;28;19916;-77
2023/05/06 04:25:06;;;;;;;;;;;;;;;;;;5038077;28;20362;-77
2023/05/06 04:27:32;;;;;;;;;;;;;;;;;;5038607;28;19959;-77
2023/05/06 04:29:59;;;;;;;;;;;;;;;;;;5037625;28;20024;-77
2023/05/06 04:32:26;;;;;;;;;;;;;;;;;;5032049;28;19944;-77
2023/05/06 04:34:52;;;;;;;;;;;;;;;;;;5032271;28;19917;-77
2023/05/06 04:37:18;;;;;;;;;;;;;;;;;;5033200;28;20363;-77
2023/05/06 04:39:47;;;;;;;;;;;;;;;;;;5034107;28;20420;-77
2023/05/06 04:42:13;;;;;;;;;;;;;;;;;;5035951;28;20011;-77
2023/05/06 04:44:45;;;;;;;;;;;;;;;;;;5019864;28;19955;-77
2023/05/06 04:47:11;;;;;;;;;;;;;;;;;;5023226;28;19913;-78
2023/05/06 04:49:38;;;;;;;;;;;;;;;;;;5019221;28;20272;-78
2023/05/06 04:52:05;;;;;;;;;;;;;;;;;;5034689;28;19967;-77
2023/05/06 04:54:31;;;;;;;;;;;;;;;;;;5020669;28;20456;-78
2023/05/06 04:56:56;;;;;;;;;;;;;;;;;;5035364;28;19999;-78
2023/05/06 04:59:22;;;;;;;;;;;;;;;;;;5036709;28;19912;-79
2023/05/06 05:01:47;;;;;;;;;;;;;;;;;;5045164;28;20342;-79
2023/05/06 05:04:13;;;;;;;;;;;;;;;;;;5036267;28;19912;-76
2023/05/06 05:06:39;;;;;;;;;;;;;;;;;;5037010;28;19913;-77
2023/05/06 05:09:04;;;;;;;;;;;;;;;;;;5038253;28;19941;-77
2023/05/06 05:11:30;;;;;;;;;;;;;;;;;;5038392;28;19917;-79
2023/05/06 05:13:57;;;;;;;;;;;;;;;;;;5038329;28;20015;-77
2023/05/06 05:16:22;;;;;;;;;;;;;;;;;;5043031;28;19948;-77
2023/05/06 05:18:47;;;;;;;;;;;;;;;;;;5055360;28;19967;-77
2023/05/06 05:21:19;;;;;;;;;;;;;;;;;;5037656;28;19917;-77
2023/05/06 05:23:45;;;;;;;;;;;;;;;;;;5038207;28;19923;-77
2023/05/06 05:26:10;;;;;;;;;;;;;;;;;;5028216;28;19913;-78
2023/05/06 05:28:37;;;;;;;;;;;;;;;;;;5028619;28;19958;-77
2023/05/06 05:31:03;;;;;;;;;;;;;;;;;;5020153;28;20423;-77
2023/05/06 05:33:29;;;;;;;;;;;;;;;;;;5037811;28;19920;-78
2023/05/06 05:35:55;;;;;;;;;;;;;;;;;;5019847;28;19913;-78
2023/05/06 05:38:20;;;;;;;;;;;;;;;;;;5022255;28;19924;-76
2023/05/06 05:40:46;;;;;;;;;;;;;;;;;;5020947;28;19915;-76
2023/05/06 05:43:11;;;;;;;;;;;;;;;;;;5036801;28;20302;-76
2023/05/06 05:45:39;;;;;;;;;;;;;;;;;;5037048;28;20364;-78
2023/05/06 05:48:05;;;;;;;;;;;;;;;;;;5022127;28;20398;-76
2023/05/06 05:50:30;;;;;;;;;;;;;;;;;;5021045;28;19913;-75
2023/05/06 05:52:56;;;;;;;;;;;;;;;;;;5024659;28;20407;-78
2023/05/06 05:55:22;;;;;;;;;;;;;;;;;;5038728;28;19909;-75
2023/05/06 05:57:49;;;;;;;;;;;;;;;;;;5026288;28;20295;-75
2023/05/06 06:00:15;;;;;;;;;;;;;;;;;;5041224;28;19916;-77
2023/05/06 06:02:43;;;;;;;;;;;;;;;;;;5045454;28;19958;-77
2023/05/06 06:05:09;;;;;;;;;;;;;;;;;;5040666;28;19909;-78
2023/05/06 06:07:34;;;;;;;;;;;;;;;;;;5050061;28;19959;-77
2023/05/06 06:09:59;;;;;;;;;;;;;;;;;;5042128;28;19909;-78
2023/05/06 06:12:25;;;;;;;;;;;;;;;;;;5026962;28;19913;-77
2023/05/06 06:14:50;;;;;;;;;;;;;;;;;;5042370;28;19913;-76
2023/05/06 06:17:19;;;;;;;;;;;;;;;;;;5044925;28;19920;-78
2023/05/06 06:19:45;;;;;;;;;;;;;;;;;;5042402;28;19912;-76
2023/05/06 06:22:11;;;;;;;;;;;;;;;;;;5022781;28;20147;-77
2023/05/06 06:24:36;;;;;;;;;;;;;;;;;;5037188;28;19940;-77
2023/05/06 06:27:02;;;;;;;;;;;;;;;;;;5037723;28;19920;-78
2023/05/06 06:29:27;;;;;;;;;;;;;;;;;;5045623;28;20339;-77
2023/05/06 06:31:54;;;;;;;;;;;;;;;;;;5033318;28;20342;-77
2023/05/06 06:34:20;;;;;;;;;;;;;;;;;;5034570;28;20287;-78
2023/05/06 06:36:45;;;;;;;;;;;;;;;;;;5036537;28;20012;-78
2023/05/06 06:39:11;;;;;;;;;;;;;;;;;;5035412;28;20375;-78
2023/05/06 06:41:36;;;;;;;;;;;;;;;;;;5035791;28;20438;-77
2023/05/06 06:44:02;;;;;;;;;;;;;;;;;;5067872;28;19963;-78
2023/05/06 06:46:28;;;;;;;;;;;;;;;;;;5034915;28;20350;-78
2023/05/06 06:48:53;;;;;;;;;;;;;;;;;;5036039;28;19916;-78
2023/05/06 06:51:18;;;;;;;;;;;;;;;;;;5035810;28;19919;-77
2023/05/06 06:53:47;;;;;;;;;;;;;;;;;;5035651;28;19956;-78
2023/05/06 06:56:12;;;;;;;;;;;;;;;;;;5044497;28;21467;-77
2023/05/06 06:58:37;;;;;;;;;;;;;;;;;;5035867;28;19963;-77
2023/05/06 07:01:03;;;;;;;;;;;;;;;;;;5044855;28;20369;-77
2023/05/06 07:03:28;;;;;;;;;;;;;;;;;;5046254;28;20257;-78
2023/05/06 07:05:53;;;;;;;;;;;;;;;;;;5046815;28;19912;-79
2023/05/06 07:08:20;;;;;;;;;;;;;;;;;;5049248;28;19908;-78
2023/05/06 07:10:45;;;;;;;;;;;;;;;;;;5049365;28;19912;-77
2023/05/06 07:13:11;;;;;;;;;;;;;;;;;;5046880;28;19962;-79
2023/05/06 07:15:36;;;;;;;;;;;;;;;;;;5046852;28;19923;-79
2023/05/06 07:18:01;;;;;;;;;;;;;;;;;;5048052;28;20329;-78
2023/05/06 07:20:27;;;;;;;;;;;;;;;;;;5046230;28;19912;-78
2023/05/06 07:22:52;;;;;;;;;;;;;;;;;;5049092;28;19916;-79
2023/05/06 07:25:17;;;;;;;;;;;;;;;;;;5043265;28;19913;-79
2023/05/06 07:27:42;;;;;;;;;;;;;;;;;;5034964;28;19909;-78
2023/05/06 07:30:08;;;;;;;;;;;;;;;;;;5033534;28;19920;-77
2023/05/06 07:32:33;;;;;;;;;;;;;;;;;;5035012;28;20334;-79
2023/05/06 07:34:58;;;;;;;;;;;;;;;;;;5036176;28;19923;-80
2023/05/06 07:37:24;;;;;;;;;;;;;;;;;;5045410;28;19917;-79
2023/05/06 07:39:49;;;;;;;;;;;;;;;;;;5033553;28;19923;-80
2023/05/06 07:42:14;;;;;;;;;;;;;;;;;;5032946;28;19916;-79
2023/05/06 07:44:40;;;;;;;;;;;;;;;;;;5041989;28;19991;-79
2023/05/06 07:47:05;;;;;;;;;;;;;;;;;;5043055;28;19912;-79
2023/05/06 07:49:33;;;;;;;;;;;;;;;;;;5034817;28;19937;-80
2023/05/06 07:51:58;;;;;;;;;;;;;;;;;;5033428;28;19913;-79
2023/05/06 07:54:23;;;;;;;;;;;;;;;;;;5036265;28;20305;-81
2023/05/06 07:56:49;;;;;;;;;;;;;;;;;;5024048;28;20011;-82
2023/05/06 07:59:14;;;;;;;;;;;;;;;;;;5034030;28;19917;-80
2023/05/06 08:01:39;;;;;;;;;;;;;;;;;;5044818;28;19919;-79
2023/05/06 08:04:05;;;;;;;;;;;;;;;;;;5051195;28;19943;-79
2023/05/06 08:06:31;;;;;;;;;;;;;;;;;;5046705;28;19917;-78
2023/05/06 08:08:56;;;;;;;;;;;;;;;;;;5049351;28;19913;-78
2023/05/06 08:11:21;;;;;;;;;;;;;;;;;;5050047;28;19912;-80
2023/05/06 08:13:47;;;;;;;;;;;;;;;;;;5037062;28;19916;-79
2023/05/06 08:16:12;;;;;;;;;;;;;;;;;;5032844;28;19913;-77
2023/05/06 08:18:37;;;;;;;;;;;;;;;;;;5033308;28;19913;-83
2023/05/06 08:21:03;;;;;;;;;;;;;;;;;;5034765;28;19920;-83
2023/05/06 08:23:28;;;;;;;;;;;;;;;;;;5052954;28;19909;-83
2023/05/06 08:25:53;;;;;;;;;;;;;;;;;;5039076;28;19913;-83
2023/05/06 08:28:19;;;;;;;;;;;;;;;;;;5033802;28;20307;-82
2023/05/06 08:30:46;;;;;;;;;;;;;;;;;;5034769;28;19913;-81
2023/05/06 08:33:11;;;;;;;;;;;;;;;;;;5034041;28;20423;-81
2023/05/06 08:35:37;;;;;;;;;;;;;;;;;;5034261;28;20105;-82
2023/05/06 08:38:02;;;;;;;;;;;;;;;;;;5034616;28;19917;-82
2023/05/06 08:40:29;;;;;;;;;;;;;;;;;;5037371;28;19925;-82
2023/05/06 08:42:54;;;;;;;;;;;;;;;;;;5037082;28;19916;-82
2023/05/06 08:45:19;;;;;;;;;;;;;;;;;;5039636;28;20371;-82
2023/05/06 08:47:45;;;;;;;;;;;;;;;;;;5036274;28;19948;-81
2023/05/06 08:50:10;;;;;;;;;;;;;;;;;;5039388;28;19951;-82
2023/05/06 08:52:35;;;;;;;;;;;;;;;;;;5037222;28;20005;-82
2023/05/06 08:55:03;;;;;;;;;;;;;;;;;;5033999;28;19943;-82
2023/05/06 08:57:29;;;;;;;;;;;;;;;;;;5038374;28;19909;-84
2023/05/06 08:59:54;;;;;;;;;;;;;;;;;;5024309;28;19931;-83
2023/05/06 09:02:21;;;;;;;;;;;;;;;;;;5046214;28;19912;-84
2023/05/06 09:04:46;;;;;;;;;;;;;;;;;;5052544;28;19917;-84
2023/05/06 09:07:11;;;;;;;;;;;;;;;;;;5078145;28;19920;-79
2023/05/06 09:09:37;;;;;;;;;;;;;;;;;;5032469;28;19920;-81
2023/05/06 09:12:02;;;;;;;;;;;;;;;;;;5050250;28;20325;-82
2023/05/06 09:14:28;;;;;;;;;;;;;;;;;;5033674;28;19908;-84
2023/05/06 09:16:53;;;;;;;;;;;;;;;;;;5050345;28;19919;-81
2023/05/06 09:19:19;;;;;;;;;;;;;;;;;;5083583;28;19912;-80
2023/05/06 09:21:44;;;;;;;;;;;;;;;;;;5048965;28;19917;-80
2023/05/06 09:24:13;;;;;;;;;;;;;;;;;;5058169;28;19915;-79
2023/05/06 09:26:41;;;;;;;;;;;;;;;;;;5037966;28;20380;-79
2023/05/06 09:29:09;;;;;;;;;;;;;;;;;;5032571;28;19909;-79
2023/05/06 09:31:34;;;;;;;;;;;;;;;;;;5033576;28;20300;-80
2023/05/06 09:33:59;;;;;;;;;;;;;;;;;;5044578;28;19928;-80
2023/05/06 09:36:26;;;;;;;;;;;;;;;;;;5032140;28;19967;-77
2023/05/06 09:38:52;;;;;;;;;;;;;;;;;;5032295;28;19921;-77
2023/05/06 09:41:18;;;;;;;;;;;;;;;;;;5031623;28;20337;-77
2023/05/06 09:43:43;;;;;;;;;;;;;;;;;;5033220;28;19951;-76
2023/05/06 09:46:09;;;;;;;;;;;;;;;;;;5035476;28;19966;-77
2023/05/06 09:48:34;;;;;;;;;;;;;;;;;;5033914;28;19944;-76
2023/05/06 09:51:00;;;;;;;;;;;;;;;;;;5033209;28;19921;-75
2023/05/06 09:53:25;;;;;;;;;;;;;;;;;;5031490;28;19998;-76
2023/05/06 09:55:51;;;;;;;;;;;;;;;;;;5032784;28;19917;-76
2023/05/06 09:58:16;;;;;;;;;;;;;;;;;;5037191;28;20368;-76
2023/05/06 10:00:41;;;;;;;;;;;;;;;;;;5015663;28;19913;-76
2023/05/06 10:03:07;;;;;;;;;;;;;;;;;;5032843;28;20015;-76
2023/05/06 10:05:32;;;;;;;;;;;;;;;;;;5036567;28;19913;-76
2023/05/06 10:07:57;;;;;;;;;;;;;;;;;;5036413;28;20263;-76
2023/05/06 10:10:23;;;;;;;;;;;;;;;;;;5037420;28;20418;-76
2023/05/06 10:12:48;;;;;;;;;;;;;;;;;;5040961;28;19970;-77
2023/05/06 10:15:13;;;;;;;;;;;;;;;;;;5039339;28;20318;-77
2023/05/06 10:17:39;;;;;;;;;;;;;;;;;;5046577;28;19925;-75
2023/05/06 10:20:06;;;;;;;;;;;;;;;;;;5042939;28;19952;-76
2023/05/06 10:22:31;;;;;;;;;;;;;;;;;;5048437;28;19963;-76
2023/05/06 10:24:57;;;;;;;;;;;;;;;;;;5035627;28;19940;-75
2023/05/06 10:27:25;;;;;;;;;;;;;;;;;;5042519;28;20397;-75
2023/05/06 10:29:50;;;;;;;;;;;;;;;;;;5043054;28;19909;-76
2023/05/06 10:32:16;;;;;;;;;;;;;;;;;;5053144;28;20023;-77
2023/05/06 10:34:41;;;;;;;;;;;;;;;;;;5053194;28;19925;-76
2023/05/06 10:37:06;;;;;;;;;;;;;;;;;;5068518;28;19917;-77
2023/05/06 10:39:32;;;;;;;;;;;;;;;;;;5048545;28;19920;-75
2023/05/06 10:41:57;;;;;;;;;;;;;;;;;;5046435;28;19974;-75
2023/05/06 10:44:22;;;;;;;;;;;;;;;;;;5053776;28;19909;-75
2023/05/06 10:46:47;;;;;;;;;;;;;;;;;;5050214;28;20384;-75
2023/05/06 10:49:13;;;;;;;;;;;;;;;;;;5047653;28;19952;-76
2023/05/06 10:51:41;;;;;;;;;;;;;;;;;;5034097;28;20442;-78
2023/05/06 10:54:07;;;;;;;;;;;;;;;;;;5034388;28;19913;-75
2023/05/06 10:56:32;;;;;;;;;;;;;;;;;;5035786;28;19920;-75
2023/05/06 10:58:58;;;;;;;;;;;;;;;;;;5035958;28;19967;-75
2023/05/06 11:01:23;;;;;;;;;;;;;;;;;;5036610;28;19920;-74
2023/05/06 11:03:48;;;;;;;;;;;;;;;;;;5036023;28;19901;-75
2023/05/06 11:06:14;;;;;;;;;;;;;;;;;;5040606;28;20363;-75
2023/05/06 11:08:39;;;;;;;;;;;;;;;;;;5063700;28;19959;-75
2023/05/06 11:11:05;;;;;;;;;;;;;;;;;;5037260;28;19913;-76
2023/05/06 11:13:30;;;;;;;;;;;;;;;;;;5045647;28;19916;-75
2023/05/06 11:15:55;;;;;;;;;;;;;;;;;;5034952;28;20401;-74
2023/05/06 11:18:21;;;;;;;;;;;;;;;;;;5018014;28;19917;-75
2023/05/06 11:20:46;;;;;;;;;;;;;;;;;;5035369;28;19913;-75
2023/05/06 11:23:11;;;;;;;;;;;;;;;;;;5035447;28;19917;-75
2023/05/06 11:25:37;;;;;;;;;;;;;;;;;;5036506;28;19917;-75
2023/05/06 11:28:02;;;;;;;;;;;;;;;;;;5033707;28;20005;-74
2023/05/06 11:30:27;;;;;;;;;;;;;;;;;;5038025;28;20347;-75
2023/05/06 11:32:53;;;;;;;;;;;;;;;;;;5032712;28;20383;-76
2023/05/06 11:35:20;;;;;;;;;;;;;;;;;;5034390;28;19925;-75
2023/05/06 11:37:45;;;;;;;;;;;;;;;;;;5034630;28;20275;-76
2023/05/06 11:40:11;;;;;;;;;;;;;;;;;;5034685;28;19924;-75
2023/05/06 11:42:36;;;;;;;;;;;;;;;;;;5033021;28;19909;-75
2023/05/06 11:45:02;;;;;;;;;;;;;;;;;;5032857;28;20299;-76
2023/05/06 11:47:27;;;;;;;;;;;;;;;;;;5037589;28;19909;-75
2023/05/06 11:49:52;;;;;;;;;;;;;;;;;;5040096;28;19916;-76
2023/05/06 11:52:17;;;;;;;;;;;;;;;;;;5037260;28;19916;-75
2023/05/06 11:54:43;;;;;;;;;;;;;;;;;;5040232;28;19962;-75
2023/05/06 11:57:08;;;;;;;;;;;;;;;;;;5037087;28;20288;-75
2023/05/06 11:59:33;;;;;;;;;;;;;;;;;;5038618;28;19916;-75
2023/05/06 12:01:59;;;;;;;;;;;;;;;;;;5034084;28;19909;-76
2023/05/06 12:04:24;;;;;;;;;;;;;;;;;;5032805;28;19913;-76
2023/05/06 12:06:49;;;;;;;;;;;;;;;;;;5066518;28;20007;-75
2023/05/06 12:09:15;;;;;;;;;;;;;;;;;;5034493;28;20016;-75
2023/05/06 12:11:40;;;;;;;;;;;;;;;;;;5052199;28;19920;-75
2023/05/06 12:14:05;;;;;;;;;;;;;;;;;;5040268;28;19913;-75
2023/05/06 12:16:31;;;;;;;;;;;;;;;;;;5041455;28;20376;-75
2023/05/06 12:18:56;;;;;;;;;;;;;;;;;;5044436;28;19969;-75
2023/05/06 12:21:22;;;;;;;;;;;;;;;;;;5041669;28;19909;-75
2023/05/06 12:23:47;;;;;;;;;;;;;;;;;;5044666;28;20405;-75
2023/05/06 12:26:12;;;;;;;;;;;;;;;;;;5036696;28;19915;-75
2023/05/06 12:28:41;;;;;;;;;;;;;;;;;;5033307;28;20383;-75
2023/05/06 12:31:06;;;;;;;;;;;;;;;;;;5033523;28;20352;-75
2023/05/06 12:33:32;;;;;;;;;;;;;;;;;;5034812;28;19970;-75
2023/05/06 12:35:57;;;;;;;;;;;;;;;;;;5034050;28;20402;-75
2023/05/06 12:38:22;;;;;;;;;;;;;;;;;;5034460;28;19921;-75
2023/05/06 12:40:47;;;;;;;;;;;;;;;;;;5032032;28;19909;-75
2023/05/06 12:43:13;;;;;;;;;;;;;;;;;;5069979;28;19913;-75
2023/05/06 12:45:38;;;;;;;;;;;;;;;;;;5033397;28;19913;-75
2023/05/06 12:48:07;;;;;;;;;;;;;;;;;;5037206;28;19912;-75
2023/05/06 12:50:32;;;;;;;;;;;;;;;;;;5036797;28;20330;-75
2023/05/06 12:52:57;;;;;;;;;;;;;;;;;;5036104;28;19974;-75
2023/05/06 12:55:24;;;;;;;;;;;;;;;;;;5031557;28;20050;-75
2023/05/06 12:57:50;;;;;;;;;;;;;;;;;;5065095;28;19958;-76
2023/05/06 13:00:16;;;;;;;;;;;;;;;;;;5031864;28;19916;-75
2023/05/06 13:02:41;;;;;;;;;;;;;;;;;;5035453;28;20279;-75
2023/05/06 13:05:06;;;;;;;;;;;;;;;;;;5036050;28;19909;-76
2023/05/06 13:07:32;;;;;;;;;;;;;;;;;;5034316;28;19913;-74
2023/05/06 13:09:57;;;;;;;;;;;;;;;;;;5068654;28;20430;-76
2023/05/06 13:12:23;;;;;;;;;;;;;;;;;;5051736;28;19919;-75
2023/05/06 13:14:48;;;;;;;;;;;;;;;;;;5030979;28;19916;-74
2023/05/06 13:17:13;;;;;;;;;;;;;;;;;;5033034;28;19924;-74
2023/05/06 13:19:39;;;;;;;;;;;;;;;;;;5036134;28;19916;-74
2023/05/06 13:22:04;;;;;;;;;;;;;;;;;;5047344;28;19916;-75
2023/05/06 13:24:29;;;;;;;;;;;;;;;;;;5044569;28;19909;-75
2023/05/06 13:26:55;;;;;;;;;;;;;;;;;;5036284;28;19912;-75
2023/05/06 13:29:22;;;;;;;;;;;;;;;;;;5032847;28;19920;-75
2023/05/06 13:31:47;;;;;;;;;;;;;;;;;;5035765;28;19913;-75
2023/05/06 13:34:12;;;;;;;;;;;;;;;;;;5033970;28;19958;-75
2023/05/06 13:36:38;;;;;;;;;;;;;;;;;;5036514;28;20406;-74
2023/05/06 13:39:03;;;;;;;;;;;;;;;;;;5038858;28;19912;-75
2023/05/06 13:41:28;;;;;;;;;;;;;;;;;;5041065;28;19913;-74
2023/05/06 13:43:54;;;;;;;;;;;;;;;;;;5032669;28;19971;-75
2023/05/06 13:46:19;;;;;;;;;;;;;;;;;;5033663;28;19920;-74
2023/05/06 13:48:44;;;;;;;;;;;;;;;;;;5037483;28;19935;-74
2023/05/06 13:51:10;;;;;;;;;;;;;;;;;;5038859;28;19936;-75
2023/05/06 13:53:35;;;;;;;;;;;;;;;;;;5044713;28;20307;-74
2023/05/06 13:56:00;;;;;;;;;;;;;;;;;;5041665;28;20007;-74
2023/05/06 13:58:26;;;;;;;;;;;;;;;;;;5044855;28;19963;-74
2023/05/06 14:00:51;;;;;;;;;;;;;;;;;;5042960;28;19917;-75
2023/05/06 14:03:16;;;;;;;;;;;;;;;;;;5047740;28;19908;-74
2023/05/06 14:05:42;;;;;;;;;;;;;;;;;;5045294;28;19913;-74
2023/05/06 14:08:07;;;;;;;;;;;;;;;;;;5051926;28;19909;-75
2023/05/06 14:10:33;;;;;;;;;;;;;;;;;;5047576;28;19968;-74
2023/05/06 14:12:58;;;;;;;;;;;;;;;;;;5052306;28;19908;-74
2023/05/06 14:15:24;;;;;;;;;;;;;;;;;;5039605;28;19913;-74
2023/05/06 14:17:49;;;;;;;;;;;;;;;;;;5036183;28;19916;-74
2023/05/06 14:20:15;;;;;;;;;;;;;;;;;;5034472;28;19912;-74
2023/05/06 14:22:40;;;;;;;;;;;;;;;;;;5035943;28;19941;-74
2023/05/06 14:25:05;;;;;;;;;;;;;;;;;;5035910;28;20355;-75
2023/05/06 14:27:31;;;;;;;;;;;;;;;;;;5035602;28;19913;-75
2023/05/06 14:29:56;;;;;;;;;;;;;;;;;;5035515;28;20077;-75
2023/05/06 14:32:21;;;;;;;;;;;;;;;;;;5035417;28;20256;-74
2023/05/06 14:34:47;;;;;;;;;;;;;;;;;;5034013;28;19974;-75
2023/05/06 14:37:12;;;;;;;;;;;;;;;;;;5035498;28;19920;-75
2023/05/06 14:39:37;;;;;;;;;;;;;;;;;;5037556;28;19934;-75
2023/05/06 14:42:03;;;;;;;;;;;;;;;;;;5036396;28;19940;-75
2023/05/06 14:44:28;;;;;;;;;;;;;;;;;;5035908;28;19913;-74
2023/05/06 14:46:53;;;;;;;;;;;;;;;;;;5037053;28;19985;-75
2023/05/06 14:49:20;;;;;;;;;;;;;;;;;;5037630;28;19920;-75
2023/05/06 14:51:46;;;;;;;;;;;;;;;;;;5033730;28;19908;-75
2023/05/06 14:54:11;;;;;;;;;;;;;;;;;;5040218;28;19939;-75
2023/05/06 14:56:37;;;;;;;;;;;;;;;;;;5038621;28;19912;-74
2023/05/06 14:59:02;;;;;;;;;;;;;;;;;;5040714;28;19917;-75
2023/05/06 15:01:28;;;;;;;;;;;;;;;;;;5037509;28;19916;-75
2023/05/06 15:03:53;;;;;;;;;;;;;;;;;;5039567;28;19913;-75
2023/05/06 15:06:19;;;;;;;;;;;;;;;;;;5038059;28;19909;-75
2023/05/06 15:08:44;;;;;;;;;;;;;;;;;;5037428;28;19963;-75
2023/05/06 15:11:10;;;;;;;;;;;;;;;;;;5035386;28;19917;-75
2023/05/06 15:13:35;;;;;;;;;;;;;;;;;;5033754;28;19917;-75
2023/05/06 15:16:00;;;;;;;;;;;;;;;;;;5036977;28;19913;-75
2023/05/06 15:18:26;;;;;;;;;;;;;;;;;;5034442;28;19923;-75
2023/05/06 15:20:53;;;;;;;;;;;;;;;;;;5041740;28;19912;-75
2023/05/06 15:23:19;;;;;;;;;;;;;;;;;;5037344;28;19920;-75
2023/05/06 15:25:44;;;;;;;;;;;;;;;;;;5034608;28;19909;-75
2023/05/06 15:28:10;;;;;;;;;;;;;;;;;;5047907;28;20391;-75
2023/05/06 15:30:35;;;;;;;;;;;;;;;;;;5066781;28;20003;-75
2023/05/06 15:33:00;;;;;;;;;;;;;;;;;;5033783;28;20277;-75
2023/05/06 15:35:26;;;;;;;;;;;;;;;;;;5034916;28;19924;-78
2023/05/06 15:37:51;;;;;;;;;;;;;;;;;;5035582;28;19963;-78
2023/05/06 15:40:16;;;;;;;;;;;;;;;;;;5045776;28;19959;-78
2023/05/06 15:42:42;;;;;;;;;;;;;;;;;;5052253;28;19912;-77
2023/05/06 15:45:07;;;;;;;;;;;;;;;;;;5045288;28;20359;-78
2023/05/06 15:47:33;;;;;;;;;;;;;;;;;;5034153;28;19940;-78
2023/05/06 15:49:58;;;;;;;;;;;;;;;;;;5033886;28;19913;-78
2023/05/06 15:52:23;;;;;;;;;;;;;;;;;;5033877;28;20000;-78
2023/05/06 15:54:49;;;;;;;;;;;;;;;;;;5036551;28;19908;-78
2023/05/06 15:57:14;;;;;;;;;;;;;;;;;;5042730;28;20402;-78
2023/05/06 15:59:39;;;;;;;;;;;;;;;;;;5034821;28;19913;-78
2023/05/06 16:02:05;;;;;;;;;;;;;;;;;;5037715;28;20066;-78
2023/05/06 16:04:30;;;;;;;;;;;;;;;;;;5038697;28;19909;-78
2023/05/06 16:06:56;;;;;;;;;;;;;;;;;;5035639;28;19920;-78
2023/05/06 16:09:21;;;;;;;;;;;;;;;;;;5037645;28;20371;-78
2023/05/06 16:11:47;;;;;;;;;;;;;;;;;;5034104;28;20007;-78
2023/05/06 16:14:12;;;;;;;;;;;;;;;;;;5033241;28;19915;-78
2023/05/06 16:16:37;;;;;;;;;;;;;;;;;;5042257;28;19919;-78
2023/05/06 16:19:02;;;;;;;;;;;;;;;;;;5036735;28;19912;-77
2023/05/06 16:21:28;;;;;;;;;;;;;;;;;;5035399;28;20012;-78
2023/05/06 16:23:53;;;;;;;;;;;;;;;;;;5035087;28;19913;-78
2023/05/06 16:26:18;;;;;;;;;;;;;;;;;;5033845;28;19913;-77
2023/05/06 16:28:44;;;;;;;;;;;;;;;;;;5035048;28;20295;-78
2023/05/06 16:31:09;;;;;;;;;;;;;;;;;;5041405;28;20007;-77
2023/05/06 16:33:35;;;;;;;;;;;;;;;;;;5035604;28;19916;-77